sensor_id;sensor_type;location;lat;lon;timestamp;P1;durP1;ratioP1;P2;durP2;ratioP2
79464;SDS011;68932;47.410;8.232;2024-01-30T00:02:20;13.30;;;9.50;;
79464;SDS011;68932;47.410;8.232;2024-01-30T00:04:48;13.80;;;10.10;;
79464;SDS011;68932;47.410;8.232;2024-01-30T00:07:16;15.70;;;11.20;;
79464;SDS011;68932;47.410;8.232;2024-01-30T00:09:45;17.30;;;11.00;;
79464;SDS011;68932;47.410;8.232;2024-01-30T00:12:14;15.40;;;11.60;;
79464;SDS011;68932;47.410;8.232;2024-01-30T00:14:42;14.50;;;10.70;;
79464;SDS011;68932;47.410;8.232;2024-01-30T00:17:11;16.00;;;10.80;;
79464;SDS011;68932;47.410;8.232;2024-01-30T00:19:39;14.20;;;9.50;;
79464;SDS011;68932;47.410;8.232;2024-01-30T00:22:07;17.30;;;10.80;;
79464;SDS011;68932;47.410;8.232;2024-01-30T00:24:35;15.70;;;10.50;;
79464;SDS011;68932;47.410;8.232;2024-01-30T00:27:04;18.40;;;11.00;;
79464;SDS011;68932;47.410;8.232;2024-01-30T00:29:32;15.30;;;11.10;;
79464;SDS011;68932;47.410;8.232;2024-01-30T00:32:01;16.40;;;11.40;;
79464;SDS011;68932;47.410;8.232;2024-01-30T00:34:29;14.70;;;9.80;;
79464;SDS011;68932;47.410;8.232;2024-01-30T00:36:58;14.20;;;10.00;;
79464;SDS011;68932;47.410;8.232;2024-01-30T00:39:26;17.00;;;10.30;;
79464;SDS011;68932;47.410;8.232;2024-01-30T00:41:54;14.70;;;9.60;;
79464;SDS011;68932;47.410;8.232;2024-01-30T00:44:22;15.30;;;10.20;;
79464;SDS011;68932;47.410;8.232;2024-01-30T00:46:50;15.80;;;10.60;;
79464;SDS011;68932;47.410;8.232;2024-01-30T00:49:19;15.10;;;11.00;;
79464;SDS011;68932;47.410;8.232;2024-01-30T00:51:47;16.60;;;10.10;;
79464;SDS011;68932;47.410;8.232;2024-01-30T00:54:15;16.20;;;10.60;;
79464;SDS011;68932;47.410;8.232;2024-01-30T00:56:44;16.10;;;10.40;;
79464;SDS011;68932;47.410;8.232;2024-01-30T00:59:12;14.20;;;10.50;;
79464;SDS011;68932;47.410;8.232;2024-01-30T01:01:40;12.30;;;9.70;;
79464;SDS011;68932;47.410;8.232;2024-01-30T01:04:09;15.80;;;10.00;;
79464;SDS011;68932;47.410;8.232;2024-01-30T01:06:37;15.20;;;10.10;;
79464;SDS011;68932;47.410;8.232;2024-01-30T01:09:05;15.60;;;10.10;;
79464;SDS011;68932;47.410;8.232;2024-01-30T01:11:33;14.30;;;10.80;;
79464;SDS011;68932;47.410;8.232;2024-01-30T01:14:02;15.10;;;11.30;;
79464;SDS011;68932;47.410;8.232;2024-01-30T01:16:30;15.80;;;10.90;;
79464;SDS011;68932;47.410;8.232;2024-01-30T01:18:59;14.50;;;10.00;;
79464;SDS011;68932;47.410;8.232;2024-01-30T01:21:27;15.90;;;10.20;;
79464;SDS011;68932;47.410;8.232;2024-01-30T01:23:56;16.50;;;9.90;;
79464;SDS011;68932;47.410;8.232;2024-01-30T01:26:24;16.20;;;11.30;;
79464;SDS011;68932;47.410;8.232;2024-01-30T01:28:52;15.80;;;10.80;;
79464;SDS011;68932;47.410;8.232;2024-01-30T01:31:20;15.20;;;10.10;;
79464;SDS011;68932;47.410;8.232;2024-01-30T01:33:48;15.70;;;10.20;;
79464;SDS011;68932;47.410;8.232;2024-01-30T01:36:17;19.90;;;12.50;;
79464;SDS011;68932;47.410;8.232;2024-01-30T01:38:45;20.70;;;12.30;;
79464;SDS011;68932;47.410;8.232;2024-01-30T01:41:13;19.30;;;11.60;;
79464;SDS011;68932;47.410;8.232;2024-01-30T01:43:42;18.10;;;11.50;;
79464;SDS011;68932;47.410;8.232;2024-01-30T01:46:10;20.90;;;11.80;;
79464;SDS011;68932;47.410;8.232;2024-01-30T01:48:38;19.80;;;11.70;;
79464;SDS011;68932;47.410;8.232;2024-01-30T01:51:07;15.80;;;11.10;;
79464;SDS011;68932;47.410;8.232;2024-01-30T01:53:36;21.20;;;13.00;;
79464;SDS011;68932;47.410;8.232;2024-01-30T01:56:05;19.30;;;12.30;;
79464;SDS011;68932;47.410;8.232;2024-01-30T01:58:34;17.90;;;11.50;;
79464;SDS011;68932;47.410;8.232;2024-01-30T02:01:04;18.90;;;10.50;;
79464;SDS011;68932;47.410;8.232;2024-01-30T02:03:34;17.50;;;11.00;;
79464;SDS011;68932;47.410;8.232;2024-01-30T02:06:02;18.10;;;11.80;;
79464;SDS011;68932;47.410;8.232;2024-01-30T02:08:31;16.20;;;11.10;;
79464;SDS011;68932;47.410;8.232;2024-01-30T02:11:00;18.10;;;11.20;;
79464;SDS011;68932;47.410;8.232;2024-01-30T02:13:28;17.70;;;11.80;;
79464;SDS011;68932;47.410;8.232;2024-01-30T02:15:57;16.20;;;10.80;;
79464;SDS011;68932;47.410;8.232;2024-01-30T02:18:25;16.10;;;11.20;;
79464;SDS011;68932;47.410;8.232;2024-01-30T02:20:54;13.70;;;10.40;;
79464;SDS011;68932;47.410;8.232;2024-01-30T02:23:24;17.20;;;10.70;;
79464;SDS011;68932;47.410;8.232;2024-01-30T02:25:54;16.40;;;10.90;;
79464;SDS011;68932;47.410;8.232;2024-01-30T02:28:22;15.70;;;11.50;;
79464;SDS011;68932;47.410;8.232;2024-01-30T02:30:50;13.30;;;9.00;;
79464;SDS011;68932;47.410;8.232;2024-01-30T02:33:18;12.60;;;8.80;;
79464;SDS011;68932;47.410;8.232;2024-01-30T02:35:47;13.60;;;10.10;;
79464;SDS011;68932;47.410;8.232;2024-01-30T02:38:15;13.00;;;9.70;;
79464;SDS011;68932;47.410;8.232;2024-01-30T02:40:44;11.90;;;9.20;;
79464;SDS011;68932;47.410;8.232;2024-01-30T02:43:12;11.20;;;7.80;;
79464;SDS011;68932;47.410;8.232;2024-01-30T02:45:40;10.90;;;8.40;;
79464;SDS011;68932;47.410;8.232;2024-01-30T02:48:09;9.50;;;7.60;;
79464;SDS011;68932;47.410;8.232;2024-01-30T02:50:37;11.30;;;9.50;;
79464;SDS011;68932;47.410;8.232;2024-01-30T02:53:05;11.60;;;8.90;;
79464;SDS011;68932;47.410;8.232;2024-01-30T02:55:34;14.80;;;9.90;;
79464;SDS011;68932;47.410;8.232;2024-01-30T02:58:03;14.10;;;9.60;;
79464;SDS011;68932;47.410;8.232;2024-01-30T03:00:31;15.70;;;10.60;;
79464;SDS011;68932;47.410;8.232;2024-01-30T03:02:59;16.30;;;10.30;;
79464;SDS011;68932;47.410;8.232;2024-01-30T03:05:28;16.90;;;10.50;;
79464;SDS011;68932;47.410;8.232;2024-01-30T03:07:56;15.60;;;10.70;;
79464;SDS011;68932;47.410;8.232;2024-01-30T03:10:24;14.90;;;10.90;;
79464;SDS011;68932;47.410;8.232;2024-01-30T03:12:52;17.30;;;10.50;;
79464;SDS011;68932;47.410;8.232;2024-01-30T03:15:21;17.00;;;10.40;;
79464;SDS011;68932;47.410;8.232;2024-01-30T03:17:49;16.90;;;10.00;;
79464;SDS011;68932;47.410;8.232;2024-01-30T03:20:17;16.70;;;10.20;;
79464;SDS011;68932;47.410;8.232;2024-01-30T03:22:45;16.80;;;10.80;;
79464;SDS011;68932;47.410;8.232;2024-01-30T03:25:14;16.00;;;10.70;;
79464;SDS011;68932;47.410;8.232;2024-01-30T03:27:42;18.10;;;10.70;;
79464;SDS011;68932;47.410;8.232;2024-01-30T03:30:11;15.10;;;9.70;;
79464;SDS011;68932;47.410;8.232;2024-01-30T03:32:39;13.80;;;8.60;;
79464;SDS011;68932;47.410;8.232;2024-01-30T03:35:08;14.40;;;9.00;;
79464;SDS011;68932;47.410;8.232;2024-01-30T03:37:37;14.20;;;9.90;;
79464;SDS011;68932;47.410;8.232;2024-01-30T03:40:06;15.20;;;9.60;;
79464;SDS011;68932;47.410;8.232;2024-01-30T03:42:35;12.80;;;9.40;;
79464;SDS011;68932;47.410;8.232;2024-01-30T03:45:05;17.00;;;10.00;;
79464;SDS011;68932;47.410;8.232;2024-01-30T03:47:34;14.60;;;10.00;;
79464;SDS011;68932;47.410;8.232;2024-01-30T03:50:02;16.50;;;10.50;;
79464;SDS011;68932;47.410;8.232;2024-01-30T03:52:32;15.50;;;9.30;;
79464;SDS011;68932;47.410;8.232;2024-01-30T03:55:00;17.60;;;10.10;;
79464;SDS011;68932;47.410;8.232;2024-01-30T03:57:29;16.50;;;10.80;;
79464;SDS011;68932;47.410;8.232;2024-01-30T03:59:58;12.60;;;8.20;;
79464;SDS011;68932;47.410;8.232;2024-01-30T04:02:26;14.60;;;9.20;;
79464;SDS011;68932;47.410;8.232;2024-01-30T04:04:54;13.40;;;9.80;;
79464;SDS011;68932;47.410;8.232;2024-01-30T04:07:23;14.10;;;8.90;;
79464;SDS011;68932;47.410;8.232;2024-01-30T04:09:51;11.00;;;8.40;;
79464;SDS011;68932;47.410;8.232;2024-01-30T04:12:19;13.70;;;9.10;;
79464;SDS011;68932;47.410;8.232;2024-01-30T04:14:47;14.30;;;10.10;;
79464;SDS011;68932;47.410;8.232;2024-01-30T04:17:16;12.20;;;8.70;;
79464;SDS011;68932;47.410;8.232;2024-01-30T04:19:44;12.60;;;8.60;;
79464;SDS011;68932;47.410;8.232;2024-01-30T04:22:12;10.60;;;8.50;;
79464;SDS011;68932;47.410;8.232;2024-01-30T04:24:41;12.20;;;7.60;;
79464;SDS011;68932;47.410;8.232;2024-01-30T04:27:09;10.40;;;8.30;;
79464;SDS011;68932;47.410;8.232;2024-01-30T04:29:37;10.70;;;8.30;;
79464;SDS011;68932;47.410;8.232;2024-01-30T04:32:06;10.10;;;7.30;;
79464;SDS011;68932;47.410;8.232;2024-01-30T04:34:35;12.60;;;8.70;;
79464;SDS011;68932;47.410;8.232;2024-01-30T04:37:05;13.50;;;10.10;;
79464;SDS011;68932;47.410;8.232;2024-01-30T04:39:34;11.10;;;8.70;;
79464;SDS011;68932;47.410;8.232;2024-01-30T04:42:02;13.80;;;8.60;;
79464;SDS011;68932;47.410;8.232;2024-01-30T04:44:32;11.70;;;8.80;;
79464;SDS011;68932;47.410;8.232;2024-01-30T04:47:00;13.50;;;10.60;;
79464;SDS011;68932;47.410;8.232;2024-01-30T04:49:28;14.60;;;10.60;;
79464;SDS011;68932;47.410;8.232;2024-01-30T04:51:56;16.20;;;10.30;;
79464;SDS011;68932;47.410;8.232;2024-01-30T04:54:25;14.10;;;10.30;;
79464;SDS011;68932;47.410;8.232;2024-01-30T04:56:53;14.60;;;10.20;;
79464;SDS011;68932;47.410;8.232;2024-01-30T04:59:21;16.90;;;9.80;;
79464;SDS011;68932;47.410;8.232;2024-01-30T05:01:49;15.60;;;10.10;;
79464;SDS011;68932;47.410;8.232;2024-01-30T05:04:18;14.80;;;9.50;;
79464;SDS011;68932;47.410;8.232;2024-01-30T05:06:46;15.30;;;9.90;;
79464;SDS011;68932;47.410;8.232;2024-01-30T05:09:14;14.30;;;9.90;;
79464;SDS011;68932;47.410;8.232;2024-01-30T05:11:42;15.00;;;10.20;;
79464;SDS011;68932;47.410;8.232;2024-01-30T05:14:11;16.80;;;10.80;;
79464;SDS011;68932;47.410;8.232;2024-01-30T05:16:39;15.50;;;10.30;;
79464;SDS011;68932;47.410;8.232;2024-01-30T05:19:07;14.90;;;10.00;;
79464;SDS011;68932;47.410;8.232;2024-01-30T05:21:36;14.50;;;11.30;;
79464;SDS011;68932;47.410;8.232;2024-01-30T05:24:04;15.90;;;10.40;;
79464;SDS011;68932;47.410;8.232;2024-01-30T05:26:33;14.90;;;10.20;;
79464;SDS011;68932;47.410;8.232;2024-01-30T05:29:02;15.60;;;10.70;;
79464;SDS011;68932;47.410;8.232;2024-01-30T05:31:31;14.40;;;9.80;;
79464;SDS011;68932;47.410;8.232;2024-01-30T05:33:59;18.90;;;10.40;;
79464;SDS011;68932;47.410;8.232;2024-01-30T05:36:28;15.10;;;10.50;;
79464;SDS011;68932;47.410;8.232;2024-01-30T05:38:56;15.80;;;9.60;;
79464;SDS011;68932;47.410;8.232;2024-01-30T05:41:24;16.80;;;10.70;;
79464;SDS011;68932;47.410;8.232;2024-01-30T05:43:56;17.20;;;10.90;;
79464;SDS011;68932;47.410;8.232;2024-01-30T05:46:24;17.00;;;10.60;;
79464;SDS011;68932;47.410;8.232;2024-01-30T05:48:52;17.50;;;11.50;;
79464;SDS011;68932;47.410;8.232;2024-01-30T05:51:20;15.80;;;9.60;;
79464;SDS011;68932;47.410;8.232;2024-01-30T05:53:49;15.90;;;10.60;;
79464;SDS011;68932;47.410;8.232;2024-01-30T05:56:17;13.70;;;8.80;;
79464;SDS011;68932;47.410;8.232;2024-01-30T05:58:45;16.40;;;9.40;;
79464;SDS011;68932;47.410;8.232;2024-01-30T06:01:13;14.00;;;9.80;;
79464;SDS011;68932;47.410;8.232;2024-01-30T06:03:42;12.10;;;9.30;;
79464;SDS011;68932;47.410;8.232;2024-01-30T06:06:10;14.70;;;9.20;;
79464;SDS011;68932;47.410;8.232;2024-01-30T06:08:38;11.90;;;9.30;;
79464;SDS011;68932;47.410;8.232;2024-01-30T06:11:09;12.90;;;8.50;;
79464;SDS011;68932;47.410;8.232;2024-01-30T06:13:38;15.70;;;10.20;;
79464;SDS011;68932;47.410;8.232;2024-01-30T06:16:08;15.40;;;10.00;;
79464;SDS011;68932;47.410;8.232;2024-01-30T06:18:37;14.70;;;10.00;;
79464;SDS011;68932;47.410;8.232;2024-01-30T06:21:06;13.50;;;10.30;;
79464;SDS011;68932;47.410;8.232;2024-01-30T06:23:34;17.70;;;10.20;;
79464;SDS011;68932;47.410;8.232;2024-01-30T06:26:02;14.20;;;9.10;;
79464;SDS011;68932;47.410;8.232;2024-01-30T06:28:31;15.40;;;8.70;;
79464;SDS011;68932;47.410;8.232;2024-01-30T06:30:59;16.00;;;10.20;;
79464;SDS011;68932;47.410;8.232;2024-01-30T06:33:28;13.80;;;9.60;;
79464;SDS011;68932;47.410;8.232;2024-01-30T06:35:57;16.60;;;9.70;;
79464;SDS011;68932;47.410;8.232;2024-01-30T06:38:25;13.50;;;9.50;;
79464;SDS011;68932;47.410;8.232;2024-01-30T06:40:53;14.20;;;9.30;;
79464;SDS011;68932;47.410;8.232;2024-01-30T06:43:21;13.40;;;9.30;;
79464;SDS011;68932;47.410;8.232;2024-01-30T06:45:50;15.90;;;10.20;;
79464;SDS011;68932;47.410;8.232;2024-01-30T06:48:18;16.30;;;10.00;;
79464;SDS011;68932;47.410;8.232;2024-01-30T06:50:46;14.80;;;9.10;;
79464;SDS011;68932;47.410;8.232;2024-01-30T06:53:15;15.70;;;10.30;;
79464;SDS011;68932;47.410;8.232;2024-01-30T06:55:43;15.70;;;10.30;;
79464;SDS011;68932;47.410;8.232;2024-01-30T06:58:11;12.20;;;8.80;;
79464;SDS011;68932;47.410;8.232;2024-01-30T07:00:40;16.30;;;10.10;;
79464;SDS011;68932;47.410;8.232;2024-01-30T07:03:08;17.00;;;9.90;;
79464;SDS011;68932;47.410;8.232;2024-01-30T07:05:36;11.90;;;9.00;;
79464;SDS011;68932;47.410;8.232;2024-01-30T07:08:05;13.40;;;8.70;;
79464;SDS011;68932;47.410;8.232;2024-01-30T07:10:34;13.80;;;10.00;;
79464;SDS011;68932;47.410;8.232;2024-01-30T07:13:02;14.70;;;9.50;;
79464;SDS011;68932;47.410;8.232;2024-01-30T07:15:31;12.80;;;9.30;;
79464;SDS011;68932;47.410;8.232;2024-01-30T07:17:59;16.40;;;10.50;;
79464;SDS011;68932;47.410;8.232;2024-01-30T07:20:27;16.60;;;10.40;;
79464;SDS011;68932;47.410;8.232;2024-01-30T07:22:56;17.20;;;9.90;;
79464;SDS011;68932;47.410;8.232;2024-01-30T07:25:24;13.30;;;8.40;;
79464;SDS011;68932;47.410;8.232;2024-01-30T07:27:52;15.30;;;9.40;;
79464;SDS011;68932;47.410;8.232;2024-01-30T07:30:20;11.80;;;8.80;;
79464;SDS011;68932;47.410;8.232;2024-01-30T07:32:49;12.00;;;9.00;;
79464;SDS011;68932;47.410;8.232;2024-01-30T07:35:17;12.40;;;9.40;;
79464;SDS011;68932;47.410;8.232;2024-01-30T07:37:45;13.60;;;9.30;;
79464;SDS011;68932;47.410;8.232;2024-01-30T07:40:14;14.50;;;9.80;;
79464;SDS011;68932;47.410;8.232;2024-01-30T07:42:45;14.10;;;9.90;;
79464;SDS011;68932;47.410;8.232;2024-01-30T07:45:16;17.00;;;11.30;;
79464;SDS011;68932;47.410;8.232;2024-01-30T07:47:45;19.10;;;11.60;;
79464;SDS011;68932;47.410;8.232;2024-01-30T07:50:14;21.00;;;12.50;;
79464;SDS011;68932;47.410;8.232;2024-01-30T07:52:42;17.10;;;12.00;;
79464;SDS011;68932;47.410;8.232;2024-01-30T07:55:10;15.60;;;10.30;;
79464;SDS011;68932;47.410;8.232;2024-01-30T07:57:39;16.60;;;11.50;;
79464;SDS011;68932;47.410;8.232;2024-01-30T08:00:08;15.10;;;9.60;;
79464;SDS011;68932;47.410;8.232;2024-01-30T08:02:38;15.70;;;11.90;;
79464;SDS011;68932;47.410;8.232;2024-01-30T08:05:07;13.10;;;9.80;;
79464;SDS011;68932;47.410;8.232;2024-01-30T08:07:35;15.30;;;11.00;;
79464;SDS011;68932;47.410;8.232;2024-01-30T08:10:04;13.10;;;10.20;;
79464;SDS011;68932;47.410;8.232;2024-01-30T08:12:33;12.20;;;10.10;;
79464;SDS011;68932;47.410;8.232;2024-01-30T08:15:02;15.50;;;11.20;;
79464;SDS011;68932;47.410;8.232;2024-01-30T08:17:31;13.80;;;9.80;;
79464;SDS011;68932;47.410;8.232;2024-01-30T08:20:00;13.30;;;9.80;;
79464;SDS011;68932;47.410;8.232;2024-01-30T08:22:28;12.40;;;10.20;;
79464;SDS011;68932;47.410;8.232;2024-01-30T08:24:56;13.70;;;10.00;;
79464;SDS011;68932;47.410;8.232;2024-01-30T08:27:24;14.50;;;12.80;;
79464;SDS011;68932;47.410;8.232;2024-01-30T08:29:53;14.00;;;10.20;;
79464;SDS011;68932;47.410;8.232;2024-01-30T08:32:21;11.40;;;8.90;;
79464;SDS011;68932;47.410;8.232;2024-01-30T08:34:49;10.40;;;8.40;;
79464;SDS011;68932;47.410;8.232;2024-01-30T08:37:18;12.20;;;9.80;;
79464;SDS011;68932;47.410;8.232;2024-01-30T08:39:46;10.00;;;7.60;;
79464;SDS011;68932;47.410;8.232;2024-01-30T08:42:14;10.10;;;8.20;;
79464;SDS011;68932;47.410;8.232;2024-01-30T08:44:43;11.70;;;9.40;;
79464;SDS011;68932;47.410;8.232;2024-01-30T08:47:11;10.40;;;8.00;;
79464;SDS011;68932;47.410;8.232;2024-01-30T08:49:39;12.90;;;8.20;;
79464;SDS011;68932;47.410;8.232;2024-01-30T08:52:07;10.70;;;9.00;;
79464;SDS011;68932;47.410;8.232;2024-01-30T08:54:36;10.20;;;8.80;;
79464;SDS011;68932;47.410;8.232;2024-01-30T08:57:04;11.70;;;7.90;;
79464;SDS011;68932;47.410;8.232;2024-01-30T08:59:32;10.80;;;8.10;;
79464;SDS011;68932;47.410;8.232;2024-01-30T09:02:01;10.80;;;8.50;;
79464;SDS011;68932;47.410;8.232;2024-01-30T09:04:29;12.70;;;9.00;;
79464;SDS011;68932;47.410;8.232;2024-01-30T09:06:58;9.90;;;8.70;;
79464;SDS011;68932;47.410;8.232;2024-01-30T09:09:26;12.80;;;9.10;;
79464;SDS011;68932;47.410;8.232;2024-01-30T09:11:54;13.70;;;10.80;;
79464;SDS011;68932;47.410;8.232;2024-01-30T09:14:22;13.10;;;10.20;;
79464;SDS011;68932;47.410;8.232;2024-01-30T09:16:51;14.00;;;9.90;;
79464;SDS011;68932;47.410;8.232;2024-01-30T09:19:19;14.80;;;11.00;;
79464;SDS011;68932;47.410;8.232;2024-01-30T09:21:47;13.60;;;10.90;;
79464;SDS011;68932;47.410;8.232;2024-01-30T09:24:15;12.70;;;10.20;;
79464;SDS011;68932;47.410;8.232;2024-01-30T09:26:44;13.80;;;10.60;;
79464;SDS011;68932;47.410;8.232;2024-01-30T09:29:12;12.90;;;10.00;;
79464;SDS011;68932;47.410;8.232;2024-01-30T09:31:40;14.80;;;10.00;;
79464;SDS011;68932;47.410;8.232;2024-01-30T09:34:11;12.20;;;10.50;;
79464;SDS011;68932;47.410;8.232;2024-01-30T09:36:39;13.90;;;9.90;;
79464;SDS011;68932;47.410;8.232;2024-01-30T09:39:08;14.30;;;10.40;;
79464;SDS011;68932;47.410;8.232;2024-01-30T09:41:39;16.50;;;12.40;;
79464;SDS011;68932;47.410;8.232;2024-01-30T09:44:11;14.10;;;10.00;;
79464;SDS011;68932;47.410;8.232;2024-01-30T09:46:41;12.60;;;10.00;;
79464;SDS011;68932;47.410;8.232;2024-01-30T09:49:13;14.20;;;10.40;;
79464;SDS011;68932;47.410;8.232;2024-01-30T09:51:41;11.30;;;9.90;;
79464;SDS011;68932;47.410;8.232;2024-01-30T09:54:10;15.40;;;11.20;;
79464;SDS011;68932;47.410;8.232;2024-01-30T09:56:42;13.30;;;9.80;;
79464;SDS011;68932;47.410;8.232;2024-01-30T09:59:10;13.80;;;10.50;;
79464;SDS011;68932;47.410;8.232;2024-01-30T10:01:39;14.90;;;10.40;;
79464;SDS011;68932;47.410;8.232;2024-01-30T10:04:09;12.40;;;9.60;;
79464;SDS011;68932;47.410;8.232;2024-01-30T10:06:37;13.20;;;10.50;;
79464;SDS011;68932;47.410;8.232;2024-01-30T10:09:06;12.10;;;9.00;;
79464;SDS011;68932;47.410;8.232;2024-01-30T10:11:35;13.40;;;10.00;;
79464;SDS011;68932;47.410;8.232;2024-01-30T10:14:03;14.70;;;10.00;;
79464;SDS011;68932;47.410;8.232;2024-01-30T10:16:32;14.60;;;11.80;;
79464;SDS011;68932;47.410;8.232;2024-01-30T10:19:00;16.20;;;12.00;;
79464;SDS011;68932;47.410;8.232;2024-01-30T10:21:28;15.00;;;10.90;;
79464;SDS011;68932;47.410;8.232;2024-01-30T10:23:57;14.20;;;10.30;;
79464;SDS011;68932;47.410;8.232;2024-01-30T10:26:25;15.30;;;12.20;;
79464;SDS011;68932;47.410;8.232;2024-01-30T10:28:54;15.00;;;11.30;;
79464;SDS011;68932;47.410;8.232;2024-01-30T10:31:22;16.70;;;13.10;;
79464;SDS011;68932;47.410;8.232;2024-01-30T10:33:51;17.20;;;12.10;;
79464;SDS011;68932;47.410;8.232;2024-01-30T10:36:19;14.30;;;10.80;;
79464;SDS011;68932;47.410;8.232;2024-01-30T10:38:54;14.90;;;11.30;;
79464;SDS011;68932;47.410;8.232;2024-01-30T10:41:26;16.60;;;10.80;;
79464;SDS011;68932;47.410;8.232;2024-01-30T10:44:02;15.80;;;11.30;;
79464;SDS011;68932;47.410;8.232;2024-01-30T10:46:37;16.20;;;11.60;;
79464;SDS011;68932;47.410;8.232;2024-01-30T10:51:36;17.20;;;12.00;;
79464;SDS011;68932;47.410;8.232;2024-01-30T10:54:07;18.40;;;12.10;;
79464;SDS011;68932;47.410;8.232;2024-01-30T10:56:36;15.50;;;10.90;;
79464;SDS011;68932;47.410;8.232;2024-01-30T10:59:06;15.50;;;12.50;;
79464;SDS011;68932;47.410;8.232;2024-01-30T11:01:35;13.70;;;10.80;;
79464;SDS011;68932;47.410;8.232;2024-01-30T11:04:04;15.60;;;11.50;;
79464;SDS011;68932;47.410;8.232;2024-01-30T11:06:33;19.40;;;12.80;;
79464;SDS011;68932;47.410;8.232;2024-01-30T11:09:10;17.10;;;11.40;;
79464;SDS011;68932;47.410;8.232;2024-01-30T11:11:49;15.30;;;11.10;;
79464;SDS011;68932;47.410;8.232;2024-01-30T11:14:25;15.60;;;11.60;;
79464;SDS011;68932;47.410;8.232;2024-01-30T11:16:56;16.30;;;10.90;;
79464;SDS011;68932;47.410;8.232;2024-01-30T11:19:25;16.10;;;11.60;;
79464;SDS011;68932;47.410;8.232;2024-01-30T11:21:54;16.10;;;10.70;;
79464;SDS011;68932;47.410;8.232;2024-01-30T11:24:22;16.40;;;11.90;;
79464;SDS011;68932;47.410;8.232;2024-01-30T11:26:55;18.50;;;11.50;;
79464;SDS011;68932;47.410;8.232;2024-01-30T11:29:25;17.10;;;11.90;;
79464;SDS011;68932;47.410;8.232;2024-01-30T11:31:55;14.60;;;11.00;;
79464;SDS011;68932;47.410;8.232;2024-01-30T11:34:25;16.90;;;11.30;;
79464;SDS011;68932;47.410;8.232;2024-01-30T11:36:55;16.30;;;11.40;;
79464;SDS011;68932;47.410;8.232;2024-01-30T11:39:25;18.00;;;12.30;;
79464;SDS011;68932;47.410;8.232;2024-01-30T11:41:55;17.80;;;11.40;;
79464;SDS011;68932;47.410;8.232;2024-01-30T11:44:25;17.80;;;11.60;;
79464;SDS011;68932;47.410;8.232;2024-01-30T11:46:53;19.30;;;11.50;;
79464;SDS011;68932;47.410;8.232;2024-01-30T11:49:22;17.20;;;11.40;;
79464;SDS011;68932;47.410;8.232;2024-01-30T11:51:51;17.50;;;11.50;;
79464;SDS011;68932;47.410;8.232;2024-01-30T11:54:21;17.80;;;11.90;;
79464;SDS011;68932;47.410;8.232;2024-01-30T11:56:49;17.60;;;12.20;;
79464;SDS011;68932;47.410;8.232;2024-01-30T11:59:17;15.80;;;11.20;;
79464;SDS011;68932;47.410;8.232;2024-01-30T12:01:45;16.80;;;11.00;;
79464;SDS011;68932;47.410;8.232;2024-01-30T12:04:14;13.90;;;9.70;;
79464;SDS011;68932;47.410;8.232;2024-01-30T12:06:43;16.60;;;10.00;;
79464;SDS011;68932;47.410;8.232;2024-01-30T12:09:11;17.40;;;10.80;;
79464;SDS011;68932;47.410;8.232;2024-01-30T12:11:44;13.30;;;9.40;;
79464;SDS011;68932;47.410;8.232;2024-01-30T12:14:13;12.50;;;7.90;;
79464;SDS011;68932;47.410;8.232;2024-01-30T12:16:42;14.00;;;9.70;;
79464;SDS011;68932;47.410;8.232;2024-01-30T12:19:22;19.20;;;11.10;;
79464;SDS011;68932;47.410;8.232;2024-01-30T12:21:55;11.70;;;8.60;;
79464;SDS011;68932;47.410;8.232;2024-01-30T12:24:23;15.40;;;10.40;;
79464;SDS011;68932;47.410;8.232;2024-01-30T12:26:52;15.80;;;10.50;;
79464;SDS011;68932;47.410;8.232;2024-01-30T12:29:22;15.20;;;10.00;;
79464;SDS011;68932;47.410;8.232;2024-01-30T12:31:53;13.10;;;10.00;;
79464;SDS011;68932;47.410;8.232;2024-01-30T12:34:22;15.50;;;11.30;;
79464;SDS011;68932;47.410;8.232;2024-01-30T12:36:52;12.80;;;8.50;;
79464;SDS011;68932;47.410;8.232;2024-01-30T12:39:21;15.10;;;9.30;;
79464;SDS011;68932;47.410;8.232;2024-01-30T12:41:49;18.00;;;11.10;;
79464;SDS011;68932;47.410;8.232;2024-01-30T12:44:18;11.90;;;9.10;;
79464;SDS011;68932;47.410;8.232;2024-01-30T12:46:46;15.80;;;10.20;;
79464;SDS011;68932;47.410;8.232;2024-01-30T12:49:15;14.50;;;10.40;;
79464;SDS011;68932;47.410;8.232;2024-01-30T12:51:43;16.50;;;10.60;;
79464;SDS011;68932;47.410;8.232;2024-01-30T12:54:12;15.10;;;9.60;;
79464;SDS011;68932;47.410;8.232;2024-01-30T12:56:40;16.70;;;10.90;;
79464;SDS011;68932;47.410;8.232;2024-01-30T12:59:09;14.10;;;8.60;;
79464;SDS011;68932;47.410;8.232;2024-01-30T13:01:37;16.00;;;10.20;;
79464;SDS011;68932;47.410;8.232;2024-01-30T13:04:05;15.40;;;11.00;;
79464;SDS011;68932;47.410;8.232;2024-01-30T13:06:34;16.60;;;10.90;;
79464;SDS011;68932;47.410;8.232;2024-01-30T13:09:02;15.50;;;9.50;;
79464;SDS011;68932;47.410;8.232;2024-01-30T13:11:30;15.20;;;10.30;;
79464;SDS011;68932;47.410;8.232;2024-01-30T13:13:58;17.90;;;11.10;;
79464;SDS011;68932;47.410;8.232;2024-01-30T13:16:27;16.20;;;10.90;;
79464;SDS011;68932;47.410;8.232;2024-01-30T13:18:55;16.60;;;11.60;;
79464;SDS011;68932;47.410;8.232;2024-01-30T13:21:23;17.20;;;11.70;;
79464;SDS011;68932;47.410;8.232;2024-01-30T13:23:52;19.40;;;11.40;;
79464;SDS011;68932;47.410;8.232;2024-01-30T13:26:20;17.20;;;11.00;;
79464;SDS011;68932;47.410;8.232;2024-01-30T13:28:48;17.40;;;11.00;;
79464;SDS011;68932;47.410;8.232;2024-01-30T13:31:17;20.40;;;13.10;;
79464;SDS011;68932;47.410;8.232;2024-01-30T13:33:45;19.10;;;11.80;;
79464;SDS011;68932;47.410;8.232;2024-01-30T13:36:14;19.20;;;12.60;;
79464;SDS011;68932;47.410;8.232;2024-01-30T13:38:42;18.30;;;11.90;;
79464;SDS011;68932;47.410;8.232;2024-01-30T13:41:11;16.60;;;11.00;;
79464;SDS011;68932;47.410;8.232;2024-01-30T13:43:39;18.00;;;12.10;;
79464;SDS011;68932;47.410;8.232;2024-01-30T13:46:07;18.50;;;12.20;;
79464;SDS011;68932;47.410;8.232;2024-01-30T13:48:35;17.60;;;12.10;;
79464;SDS011;68932;47.410;8.232;2024-01-30T13:51:04;18.20;;;12.00;;
79464;SDS011;68932;47.410;8.232;2024-01-30T13:53:33;19.40;;;12.50;;
79464;SDS011;68932;47.410;8.232;2024-01-30T13:56:01;16.40;;;11.60;;
79464;SDS011;68932;47.410;8.232;2024-01-30T13:58:30;18.00;;;12.30;;
79464;SDS011;68932;47.410;8.232;2024-01-30T14:00:59;20.30;;;11.90;;
79464;SDS011;68932;47.410;8.232;2024-01-30T14:03:27;15.70;;;10.40;;
79464;SDS011;68932;47.410;8.232;2024-01-30T14:05:55;17.30;;;12.00;;
79464;SDS011;68932;47.410;8.232;2024-01-30T14:08:24;18.40;;;10.80;;
79464;SDS011;68932;47.410;8.232;2024-01-30T14:10:52;20.70;;;11.70;;
79464;SDS011;68932;47.410;8.232;2024-01-30T14:13:20;17.70;;;11.50;;
79464;SDS011;68932;47.410;8.232;2024-01-30T14:15:49;23.00;;;13.70;;
79464;SDS011;68932;47.410;8.232;2024-01-30T14:18:17;19.50;;;15.10;;
79464;SDS011;68932;47.410;8.232;2024-01-30T14:20:46;19.80;;;13.90;;
79464;SDS011;68932;47.410;8.232;2024-01-30T14:23:14;18.70;;;12.20;;
79464;SDS011;68932;47.410;8.232;2024-01-30T14:25:43;16.10;;;11.90;;
79464;SDS011;68932;47.410;8.232;2024-01-30T14:28:12;16.30;;;12.10;;
79464;SDS011;68932;47.410;8.232;2024-01-30T14:30:40;18.90;;;12.70;;
79464;SDS011;68932;47.410;8.232;2024-01-30T14:33:08;16.90;;;12.10;;
79464;SDS011;68932;47.410;8.232;2024-01-30T14:35:37;18.10;;;11.70;;
79464;SDS011;68932;47.410;8.232;2024-01-30T14:38:05;18.50;;;12.40;;